Time;durP1;ratioP1;P1;durP2;ratioP2;P2;SDS_P1;SDS_P2;PMS_P1;PMS_P2;Temp;Humidity;BMP_temperature;BMP_pressure;BME280_temperature;BME280_humidity;BME280_pressure;Samples;Min_cycle;Max_cycle;Signal;HPM_P1;HPM_P2
2023/12/31 00:00:11;;;;;;;15.90;9.80;;;;;;;4.17;69.55;97967.13;4929502;29;20102;-64
2023/12/31 00:02:38;;;;;;;15.40;9.80;;;;;;;3.99;69.38;97934.72;4929777;29;20055;-62
2023/12/31 00:05:05;;;;;;;18.75;9.60;;;;;;;4.10;69.74;97960.34;4929196;29;20171;-63
2023/12/31 00:07:34;;;;;;;16.50;9.30;;;;;;;4.11;69.59;97962.88;4929873;29;20060;-62
2023/12/31 00:10:04;;;;;;;16.33;9.23;;;;;;;4.01;69.72;97949.28;4912528;29;20054;-61
2023/12/31 00:12:30;;;;;;;17.73;9.50;;;;;;;4.08;69.46;97962.94;4932914;29;20039;-63
2023/12/31 00:14:57;;;;;;;16.27;9.20;;;;;;;4.05;69.36;97960.41;4950314;28;20069;-63
2023/12/31 00:17:23;;;;;;;16.48;9.75;;;;;;;3.64;69.05;97893.09;4933216;29;20577;-62
2023/12/31 00:19:49;;;;;;;18.52;9.38;;;;;;;3.93;69.66;97933.09;4934687;29;20140;-64
2023/12/31 00:22:15;;;;;;;18.05;10.05;;;;;;;4.11;68.93;97956.91;4948036;28;20051;-62
2023/12/31 00:24:41;;;;;;;20.40;10.88;;;;;;;4.00;68.78;97942.41;4937931;29;20051;-62
2023/12/31 00:27:08;;;;;;;17.85;9.27;;;;;;;3.79;69.10;97928.09;4922304;29;20078;-63
2023/12/31 00:29:36;;;;;;;16.42;8.73;;;;;;;3.90;69.64;97946.81;4931838;29;20071;-63
2023/12/31 00:32:03;;;;;;;15.32;8.02;;;;;;;3.84;69.49;97931.47;4912897;29;20039;-62
2023/12/31 00:34:29;;;;;;;13.73;7.53;;;;;;;3.91;68.94;97955.41;4931919;29;20036;-61
2023/12/31 00:36:56;;;;;;;9.73;5.40;;;;;;;4.03;69.01;97973.28;4914310;29;20083;-64
2023/12/31 00:39:22;;;;;;;9.88;5.70;;;;;;;3.79;69.07;97930.66;4913846;29;20063;-64
2023/12/31 00:41:48;;;;;;;9.32;5.47;;;;;;;4.05;69.32;97970.69;4904578;29;20063;-61
2023/12/31 00:44:17;;;;;;;7.80;4.55;;;;;;;3.82;68.89;97930.63;4920369;29;20040;-62
2023/12/31 00:46:43;;;;;;;6.53;4.82;;;;;;;4.01;68.95;97971.59;4917180;29;20135;-63
2023/12/31 00:49:09;;;;;;;7.80;5.15;;;;;;;3.90;68.63;97948.56;4936188;29;20111;-63
2023/12/31 00:51:37;;;;;;;9.43;5.80;;;;;;;4.04;69.14;97958.69;4933200;29;20043;-63
2023/12/31 00:54:04;;;;;;;9.55;5.78;;;;;;;3.88;68.98;97938.25;4918358;29;20042;-62
2023/12/31 00:56:30;;;;;;;10.27;5.38;;;;;;;3.96;68.60;97965.66;4935383;29;20143;-62
2023/12/31 00:58:56;;;;;;;9.40;5.55;;;;;;;4.00;69.31;97969.91;4933443;29;20058;-63
2023/12/31 01:01:23;;;;;;;11.02;5.88;;;;;;;3.75;69.37;97919.53;4930349;29;20050;-64
2023/12/31 01:03:51;;;;;;;9.85;5.53;;;;;;;3.94;69.81;97936.50;4930280;29;20067;-63
2023/12/31 01:06:26;;;;;;;10.57;5.47;;;;;;;3.91;69.24;97934.81;4918120;29;20051;-62
2023/12/31 01:08:54;;;;;;;9.68;4.88;;;;;;;3.76;68.81;97912.69;4917316;29;20044;-64
2023/12/31 01:11:20;;;;;;;10.30;5.50;;;;;;;3.85;68.86;97946.03;4946686;28;20135;-62
2023/12/31 01:13:47;;;;;;;8.50;4.95;;;;;;;3.96;68.56;97968.22;4951439;28;20040;-61
2023/12/31 01:16:13;;;;;;;11.40;5.53;;;;;;;3.85;68.67;97948.63;4949664;28;20100;-63
2023/12/31 01:18:43;;;;;;;8.82;5.22;;;;;;;3.90;69.30;97938.25;4950438;28;20051;-61
2023/12/31 01:21:09;;;;;;;9.07;5.22;;;;;;;4.09;69.38;97959.47;4936569;29;20067;-63
2023/12/31 01:23:39;;;;;;;9.95;5.28;;;;;;;4.00;69.02;97955.28;4930815;29;20043;-63
2023/12/31 01:26:07;;;;;;;8.70;4.93;;;;;;;3.84;69.67;97939.19;4933765;29;20203;-62
2023/12/31 01:28:38;;;;;;;6.28;4.07;;;;;;;3.82;69.72;97938.34;4935017;29;20533;-62
2023/12/31 01:31:04;;;;;;;6.32;3.90;;;;;;;3.94;69.33;97951.94;4915036;29;20055;-62
2023/12/31 01:33:35;;;;;;;7.32;4.32;;;;;;;3.77;69.32;97916.97;4917247;29;20043;-62
2023/12/31 01:36:01;;;;;;;7.13;4.47;;;;;;;3.84;68.57;97931.47;4932102;29;20036;-63
2023/12/31 01:38:27;;;;;;;7.28;4.28;;;;;;;3.80;69.25;97937.53;4947147;28;20146;-61
2023/12/31 01:40:56;;;;;;;7.75;5.05;;;;;;;4.05;69.48;97973.28;4945225;28;20047;-63
2023/12/31 01:43:23;;;;;;;9.55;5.57;;;;;;;4.00;69.14;97967.31;4948384;28;20043;-62
2023/12/31 01:45:52;;;;;;;7.90;4.80;;;;;;;3.99;69.43;97968.19;4918234;29;20039;-61
2023/12/31 01:48:21;;;;;;;8.85;5.15;;;;;;;3.99;69.46;97971.59;4932025;29;20074;-63
2023/12/31 01:50:47;;;;;;;9.48;5.35;;;;;;;3.92;68.74;97952.81;4929876;29;20044;-62
2023/12/31 01:53:16;;;;;;;6.93;4.35;;;;;;;4.02;69.78;97973.31;4913950;29;20071;-61
2023/12/31 01:55:45;;;;;;;7.55;4.70;;;;;;;4.00;68.98;97981.03;4913275;29;20052;-63
2023/12/31 01:58:17;;;;;;;8.48;4.20;;;;;;;3.96;69.18;97971.66;4951959;28;20051;-61
2023/12/31 02:00:43;;;;;;;7.40;4.25;;;;;;;3.60;69.63;97907.72;4905684;29;20133;-63
2023/12/31 02:03:10;;;;;;;8.32;4.68;;;;;;;3.77;69.06;97928.09;4936513;29;20693;-62
2023/12/31 02:05:36;;;;;;;7.50;4.03;;;;;;;3.80;69.29;97903.19;4953280;28;20157;-63
2023/12/31 02:08:03;;;;;;;7.97;4.43;;;;;;;4.12;69.69;97953.44;4936348;29;20032;-62
2023/12/31 02:10:32;;;;;;;8.07;4.78;;;;;;;4.17;69.06;97962.81;4929784;29;20044;-64
2023/12/31 02:13:04;;;;;;;7.82;4.43;;;;;;;4.25;68.32;97965.28;4947477;28;20049;-61
2023/12/31 02:15:32;;;;;;;8.32;4.80;;;;;;;3.90;68.96;97915.94;4916328;29;20140;-64
2023/12/31 02:18:00;;;;;;;8.23;4.93;;;;;;;4.12;68.63;97944.00;4931979;29;20044;-62
2023/12/31 02:20:31;;;;;;;10.15;4.85;;;;;;;4.18;68.50;97966.25;4934254;29;20072;-63
2023/12/31 02:23:00;;;;;;;8.40;4.47;;;;;;;4.19;69.67;97955.94;4915403;29;20114;-63
2023/12/31 02:25:33;;;;;;;8.20;4.75;;;;;;;4.15;69.30;97938.81;4931304;29;20146;-64
2023/12/31 02:27:59;;;;;;;9.23;5.15;;;;;;;4.37;68.94;97970.28;4932070;29;20044;-63
2023/12/31 02:30:32;;;;;;;8.95;5.20;;;;;;;4.04;68.72;97925.25;4931603;29;20043;-62
2023/12/31 02:32:58;;;;;;;10.05;4.97;;;;;;;4.17;68.69;97969.69;4945485;28;20047;-63
2023/12/31 02:35:24;;;;;;;8.55;4.80;;;;;;;4.11;69.22;97978.31;4947500;28;20116;-62
2023/12/31 02:37:50;;;;;;;8.30;4.72;;;;;;;4.04;68.80;97981.88;4930532;29;20058;-62
2023/12/31 02:40:18;;;;;;;10.60;5.53;;;;;;;3.96;68.53;97974.22;4928766;29;20047;-62
2023/12/31 02:42:44;;;;;;;11.05;5.65;;;;;;;3.75;69.05;97960.72;4923439;29;21033;-63
2023/12/31 02:45:11;;;;;;;10.80;5.47;;;;;;;3.81;69.25;97974.38;4933115;29;20035;-63
2023/12/31 02:47:37;;;;;;;8.93;5.47;;;;;;;3.82;69.72;97976.09;4928835;29;20044;-62
2023/12/31 02:50:04;;;;;;;8.75;5.00;;;;;;;3.72;69.03;97972.75;4917832;29;20067;-62
2023/12/31 02:52:30;;;;;;;9.43;5.07;;;;;;;3.65;69.19;97968.53;4930308;29;20549;-64
2023/12/31 02:54:56;;;;;;;10.48;5.05;;;;;;;3.65;69.25;97965.97;4949119;28;20059;-61
2023/12/31 02:57:23;;;;;;;9.40;5.20;;;;;;;3.65;69.55;97976.25;4946290;28;20043;-62
2023/12/31 02:59:49;;;;;;;9.82;5.38;;;;;;;3.56;69.54;97969.47;4946399;28;20043;-63
2023/12/31 03:02:18;;;;;;;10.77;4.90;;;;;;;3.63;69.87;97978.84;4930226;29;20514;-61
2023/12/31 03:04:44;;;;;;;11.45;5.55;;;;;;;3.45;69.79;97954.16;4931512;29;20048;-63
2023/12/31 03:07:10;;;;;;;14.57;6.50;;;;;;;3.50;69.73;97964.41;4915977;29;20036;-62
2023/12/31 03:09:39;;;;;;;11.30;6.07;;;;;;;3.49;69.36;97973.84;4929851;29;20047;-62
2023/12/31 03:12:06;;;;;;;13.32;7.03;;;;;;;3.34;69.73;97963.72;4934885;29;21038;-62
2023/12/31 03:14:37;;;;;;;9.30;5.43;;;;;;;3.21;69.97;97942.41;4932662;29;20040;-63
2023/12/31 03:17:06;;;;;;;9.95;5.80;;;;;;;3.19;69.99;97955.28;4929686;29;20039;-63
2023/12/31 03:19:39;;;;;;;13.93;6.90;;;;;;;3.27;69.94;97975.78;4914093;29;20123;-63
2023/12/31 03:22:05;;;;;;;14.02;6.90;;;;;;;3.25;69.69;97975.75;4931330;29;20043;-63
2023/12/31 03:24:33;;;;;;;14.68;6.45;;;;;;;3.14;69.78;97960.44;4933497;29;20052;-62
2023/12/31 03:27:01;;;;;;;13.85;6.45;;;;;;;3.20;70.38;97982.66;4946123;28;20139;-62
2023/12/31 03:29:27;;;;;;;13.73;6.10;;;;;;;3.10;70.30;97961.31;4930866;29;20083;-63
2023/12/31 03:31:54;;;;;;;16.13;7.03;;;;;;;3.20;70.91;97968.97;4930093;29;20047;-60
2023/12/31 03:34:20;;;;;;;15.52;7.40;;;;;;;3.24;71.00;97979.19;4914326;29;20533;-63
2023/12/31 03:36:46;;;;;;;17.42;7.75;;;;;;;3.22;71.27;97968.06;4932993;29;20040;-62
2023/12/31 03:39:14;;;;;;;19.15;8.95;;;;;;;3.13;70.53;97953.59;4946765;28;20078;-64
2023/12/31 03:41:41;;;;;;;19.08;8.32;;;;;;;3.25;70.72;97975.75;4912140;29;20040;-63
2023/12/31 03:44:07;;;;;;;24.63;10.57;;;;;;;3.25;70.56;97968.06;4930085;29;20050;-62
2023/12/31 03:46:33;;;;;;;23.73;10.00;;;;;;;3.06;70.45;97944.25;4933835;29;20090;-62
2023/12/31 03:48:59;;;;;;;26.10;10.90;;;;;;;3.19;71.26;97975.84;4933986;29;20039;-62
2023/12/31 03:51:29;;;;;;;24.02;9.95;;;;;;;3.09;71.46;97956.19;4913193;29;20043;-61
2023/12/31 03:54:01;;;;;;;22.08;9.35;;;;;;;2.97;71.52;97929.75;4949671;28;20157;-61
2023/12/31 03:56:29;;;;;;;;;;;;;;;3.12;71.64;97969.88;4949506;28;20071;-63
2023/12/31 03:58:57;;;;;;;19.25;8.40;;;;;;;2.82;70.87;97927.28;4917105;29;19966;-63
2023/12/31 04:01:23;;;;;;;13.63;5.55;;;;;;;3.04;71.24;97960.50;4932388;29;20043;-60
2023/12/31 04:03:49;;;;;;;14.57;6.18;;;;;;;3.00;71.09;97965.69;4932671;29;20463;-61
2023/12/31 04:06:36;;;;;;;16.42;6.00;;;;;;;2.99;71.19;97958.00;4933808;29;20036;-63
2023/12/31 04:09:06;;;;;;;14.02;6.57;;;;;;;2.82;71.26;97938.44;4934232;29;20091;-61
2023/12/31 04:11:35;;;;;;;13.27;6.03;;;;;;;2.97;71.69;97981.16;4933622;29;20035;-64
2023/12/31 04:14:01;;;;;;;13.30;5.82;;;;;;;2.88;71.24;97968.34;4933101;29;20139;-63
2023/12/31 04:16:29;;;;;;;13.52;6.47;;;;;;;2.75;72.01;97946.19;4949857;28;20048;-63
2023/12/31 04:18:56;;;;;;;14.88;7.10;;;;;;;2.80;71.96;97957.25;4934919;29;20071;-62
2023/12/31 04:21:24;;;;;;;16.50;7.20;;;;;;;2.73;72.04;97946.19;4948681;28;20043;-62
2023/12/31 04:23:52;;;;;;;18.85;8.27;;;;;;;2.89;72.19;97971.75;4922689;29;20149;-62
2023/12/31 04:26:21;;;;;;;18.85;8.32;;;;;;;2.89;71.72;97967.50;4933092;29;20043;-65
2023/12/31 04:28:49;;;;;;;18.90;8.82;;;;;;;2.90;72.04;97964.06;4934387;29;20048;-64
2023/12/31 04:31:15;;;;;;;20.23;8.40;;;;;;;2.77;72.29;97947.88;4934639;29;20039;-64
2023/12/31 04:33:41;;;;;;;16.27;8.95;;;;;;;2.74;72.84;97935.06;4934097;29;20063;-62
2023/12/31 04:36:09;;;;;;;16.77;8.73;;;;;;;2.92;72.39;97962.34;4933349;29;20122;-64
2023/12/31 04:38:35;;;;;;;15.63;7.70;;;;;;;2.97;72.03;97965.72;4935096;29;20098;-63
2023/12/31 04:41:02;;;;;;;22.23;9.02;;;;;;;2.86;72.99;97952.97;4932349;29;20479;-62
2023/12/31 04:43:28;;;;;;;21.45;9.25;;;;;;;3.01;72.32;97971.69;4948753;28;20115;-62
2023/12/31 04:45:54;;;;;;;18.40;8.77;;;;;;;2.90;72.21;97958.91;4933886;29;20044;-62
2023/12/31 04:48:20;;;;;;;18.48;8.05;;;;;;;3.03;72.33;97976.81;4918475;29;20096;-62
2023/12/31 04:50:46;;;;;;;19.77;8.35;;;;;;;3.02;72.69;97963.13;4934977;29;20087;-62
2023/12/31 04:53:12;;;;;;;18.80;8.50;;;;;;;3.11;72.57;97975.88;4936465;29;20048;-62
2023/12/31 04:55:41;;;;;;;19.33;8.30;;;;;;;3.17;72.79;97973.25;4934006;29;20598;-63
2023/12/31 04:58:25;;;;;;;16.30;8.15;;;;;;;3.25;72.22;97969.78;4948088;29;20047;-63
2023/12/31 05:00:51;;;;;;;14.68;7.60;;;;;;;3.26;72.45;97974.06;4950840;28;20160;-64
2023/12/31 05:03:23;;;;;;;15.93;7.60;;;;;;;3.30;72.64;97973.19;4933243;29;20043;-65
2023/12/31 05:05:49;;;;;;;12.73;6.20;;;;;;;3.20;72.31;97956.94;4917951;29;20043;-62
2023/12/31 05:08:15;;;;;;;8.60;5.07;;;;;;;3.21;72.40;97958.66;4951158;28;20070;-64
2023/12/31 05:10:44;;;;;;;10.25;4.80;;;;;;;3.20;72.53;97956.09;4935146;29;22017;-63
2023/12/31 05:13:10;;;;;;;7.95;4.35;;;;;;;3.25;72.43;97962.91;4938353;29;20415;-63
2023/12/31 05:15:36;;;;;;;6.85;3.72;;;;;;;3.13;72.53;97952.75;4934887;29;20043;-64
2023/12/31 05:18:06;;;;;;;6.57;4.32;;;;;;;3.27;72.48;97978.34;4931546;29;20063;-63
2023/12/31 05:20:31;;;;;;;10.32;5.28;;;;;;;3.05;72.82;97942.53;4936089;29;20074;-61
2023/12/31 05:23:00;;;;;;;9.10;4.35;;;;;;;3.12;72.10;97962.16;4946985;28;20098;-63
2023/12/31 05:25:26;;;;;;;9.88;5.38;;;;;;;3.20;72.49;97968.97;4931737;29;20466;-63
2023/12/31 05:28:00;;;;;;;11.73;5.40;;;;;;;3.26;72.25;97977.47;4946703;28;20179;-61
2023/12/31 05:30:26;;;;;;;11.30;5.45;;;;;;;3.19;72.70;97967.25;4919155;29;20048;-65
2023/12/31 05:32:55;;;;;;;10.00;5.45;;;;;;;3.32;72.72;97989.41;4902069;29;20179;-62
2023/12/31 05:35:21;;;;;;;10.25;5.30;;;;;;;3.37;72.96;97989.41;4952015;28;20039;-63
2023/12/31 05:37:50;;;;;;;10.70;5.30;;;;;;;3.47;72.38;97996.16;4931807;29;20143;-64
2023/12/31 05:40:18;;;;;;;14.05;6.30;;;;;;;3.40;72.66;97974.78;4933755;29;20058;-65
2023/12/31 05:42:48;;;;;;;12.52;6.50;;;;;;;3.37;72.60;97959.38;4931803;29;20052;-63
2023/12/31 05:45:14;;;;;;;7.68;4.82;;;;;;;3.44;72.82;97981.59;4916898;29;20040;-64
2023/12/31 05:47:44;;;;;;;10.27;4.57;;;;;;;3.54;72.94;97994.38;4932194;29;20073;-63
2023/12/31 05:50:13;;;;;;;7.05;3.92;;;;;;;3.35;72.02;97973.13;4934506;29;20071;-63
2023/12/31 05:52:40;;;;;;;8.88;4.75;;;;;;;3.47;72.51;97993.56;4948506;28;20035;-62
2023/12/31 05:55:07;;;;;;;7.95;4.85;;;;;;;3.45;71.99;97997.88;4916286;29;20055;-63
2023/12/31 05:57:34;;;;;;;7.72;4.43;;;;;;;3.35;72.80;97980.84;4948719;28;20039;-64
2023/12/31 06:00:20;;;;;;;6.55;4.03;;;;;;;3.38;72.25;97976.50;4890142;29;20032;-64
2023/12/31 06:02:49;;;;;;;7.78;4.32;;;;;;;3.31;72.28;97955.16;4947371;28;20052;-63
2023/12/31 06:05:18;;;;;;;8.00;4.10;;;;;;;3.51;72.95;97986.69;4933765;29;20035;-63
2023/12/31 06:07:45;;;;;;;6.32;3.75;;;;;;;3.36;72.61;97947.38;4916068;29;20043;-62
2023/12/31 06:10:21;;;;;;;7.90;4.68;;;;;;;3.54;72.73;97987.50;4916024;29;20062;-64
2023/12/31 06:12:50;;;;;;;8.20;4.68;;;;;;;3.26;72.18;97940.63;4950632;28;20040;-63
2023/12/31 06:15:19;;;;;;;8.15;4.80;;;;;;;3.63;72.75;98003.75;4931073;29;20122;-64
2023/12/31 06:17:55;;;;;;;7.85;4.35;;;;;;;3.59;71.83;97985.75;4919267;29;20044;-64
2023/12/31 06:20:28;;;;;;;10.18;4.28;;;;;;;3.53;72.40;97970.38;4935230;29;20044;-64
2023/12/31 06:23:00;;;;;;;7.38;4.45;;;;;;;3.64;72.25;97990.84;4933654;29;20058;-64
2023/12/31 06:25:26;;;;;;;7.20;4.53;;;;;;;3.59;71.88;97987.47;4916237;29;20463;-66
2023/12/31 06:27:57;;;;;;;5.25;3.08;;;;;;;3.54;72.55;97972.09;4931882;29;20142;-63
2023/12/31 06:30:23;;;;;;;4.23;3.40;;;;;;;3.60;72.56;97978.88;4920693;29;20507;-64
2023/12/31 06:32:51;;;;;;;4.18;3.05;;;;;;;3.43;71.91;97949.03;4917308;29;20051;-66
2023/12/31 06:35:37;;;;;;;4.88;3.10;;;;;;;3.72;72.18;98004.50;4935635;29;20035;-64
2023/12/31 06:38:04;;;;;;;4.80;2.92;;;;;;;3.80;72.54;98001.84;4916527;29;20043;-63
2023/12/31 06:40:35;;;;;;;4.20;2.63;;;;;;;3.72;71.91;97980.47;4933288;29;20058;-63
2023/12/31 06:43:05;;;;;;;5.22;2.58;;;;;;;3.79;71.47;97997.56;4933099;29;20039;-63
2023/12/31 06:45:31;;;;;;;2.90;2.10;;;;;;;3.72;72.15;97973.63;4931361;29;20107;-62
2023/12/31 06:48:02;;;;;;;4.30;2.38;;;;;;;3.78;71.91;97990.72;4948396;28;20094;-61
2023/12/31 06:50:29;;;;;;;3.03;2.20;;;;;;;3.99;72.04;97996.50;4933056;29;20052;-64
2023/12/31 06:52:55;;;;;;;2.70;2.20;;;;;;;4.08;71.89;98009.28;4932232;29;20042;-64
2023/12/31 06:55:21;;;;;;;4.47;2.30;;;;;;;3.83;72.46;97960.66;4916190;29;20051;-62
2023/12/31 06:57:49;;;;;;;4.78;2.97;;;;;;;4.28;71.93;98008.19;4897685;29;20073;-63
2023/12/31 07:00:16;;;;;;;8.15;4.15;;;;;;;4.28;71.55;97996.16;4933857;29;20131;-66
2023/12/31 07:02:43;;;;;;;9.02;4.32;;;;;;;4.42;71.64;98008.88;4935542;29;20040;-63
2023/12/31 07:05:12;;;;;;;5.15;2.90;;;;;;;4.35;71.15;97995.22;4948376;28;20039;-63
2023/12/31 07:07:38;;;;;;;4.40;2.65;;;;;;;4.50;70.72;98014.78;4915587;29;20044;-63
2023/12/31 07:10:05;;;;;;;3.20;2.42;;;;;;;4.53;71.80;98006.16;4932968;29;20226;-61
2023/12/31 07:12:55;;;;;;;2.65;2.20;;;;;;;4.62;71.03;98006.03;4916677;29;20055;-62
2023/12/31 07:15:26;;;;;;;3.33;1.92;;;;;;;4.43;70.98;97983.94;4922049;29;20051;-63
2023/12/31 07:17:55;;;;;;;4.60;1.98;;;;;;;4.66;70.73;98012.00;4952031;28;20134;-63
2023/12/31 07:20:21;;;;;;;2.28;1.73;;;;;;;4.77;70.98;98019.56;4940802;29;20016;-62
2023/12/31 07:22:50;;;;;;;3.10;2.17;;;;;;;4.82;70.29;98016.06;4938575;29;20142;-62
2023/12/31 07:25:18;;;;;;;3.20;2.22;;;;;;;4.86;70.29;98018.59;4936238;29;20530;-62
2023/12/31 07:28:01;;;;;;;2.10;1.63;;;;;;;4.82;70.50;98013.47;4938261;29;20079;-62
2023/12/31 07:30:32;;;;;;;4.05;1.65;;;;;;;4.81;70.03;98011.78;4938208;29;20044;-62
2023/12/31 07:32:58;;;;;;;2.60;1.65;;;;;;;4.84;70.08;98018.63;4926296;29;20125;-63
2023/12/31 07:35:24;;;;;;;2.13;1.48;;;;;;;4.86;70.25;98021.16;4925034;29;20049;-59
2023/12/31 07:37:52;;;;;;;3.38;1.55;;;;;;;4.75;69.87;98004.13;4925921;29;20044;-62
2023/12/31 07:40:21;;;;;;;2.45;1.75;;;;;;;4.83;69.64;98014.34;4939007;29;20047;-63
2023/12/31 07:42:53;;;;;;;2.00;1.63;;;;;;;4.80;69.32;97999.75;4937693;29;20620;-64
2023/12/31 07:45:25;;;;;;;2.47;1.60;;;;;;;4.74;69.46;97973.22;4925412;29;20086;-63
2023/12/31 07:47:54;;;;;;;1.95;1.52;;;;;;;4.91;68.98;98017.66;4953234;28;20040;-62
2023/12/31 07:50:31;;;;;;;2.20;1.70;;;;;;;5.02;68.99;98038.13;4939085;29;20952;-63
2023/12/31 07:52:58;;;;;;;5.22;1.50;;;;;;;4.79;69.03;98008.34;4919107;29;20059;-62
2023/12/31 07:55:33;;;;;;;2.40;1.65;;;;;;;5.00;69.05;98028.72;4935735;29;20076;-64
2023/12/31 07:58:00;;;;;;;2.45;1.85;;;;;;;4.94;68.76;98020.19;4950987;28;20039;-62
2023/12/31 08:00:44;;;;;;;3.08;1.70;;;;;;;4.77;68.61;97986.91;4938195;29;20075;-64
2023/12/31 08:03:11;;;;;;;2.58;1.65;;;;;;;5.05;69.44;98030.34;4952051;28;20511;-63
2023/12/31 08:05:39;;;;;;;1.88;1.20;;;;;;;5.10;69.04;98043.16;4939454;29;20054;-63
2023/12/31 08:08:11;;;;;;;1.48;1.20;;;;;;;5.17;68.61;98046.50;4953389;28;20079;-64
2023/12/31 08:10:40;;;;;;;2.35;1.10;;;;;;;5.09;68.36;98036.28;4940192;29;20039;-65
2023/12/31 08:13:09;;;;;;;1.60;1.20;;;;;;;5.02;68.02;98030.38;4937756;29;20067;-63
2023/12/31 08:15:36;;;;;;;2.90;1.10;;;;;;;4.82;68.38;97990.28;4923084;29;20510;-63
2023/12/31 08:18:04;;;;;;;1.95;1.20;;;;;;;5.20;68.75;98046.44;4951864;28;20075;-64
2023/12/31 08:20:42;;;;;;;1.20;1.10;;;;;;;5.05;68.21;98014.88;4953976;28;20047;-63
2023/12/31 08:23:19;;;;;;;1.45;1.13;;;;;;;5.31;67.90;98046.28;4934924;29;20096;-62
2023/12/31 08:26:19;;;;;;;;;;;;;;;;;;;;;
2023/12/31 08:29:06;;;;;;;2.80;0.70;;;;;;;4.97;67.73;97985.75;4936808;29;20016;-64
2023/12/31 08:31:33;;;;;;;1.55;0.98;;;;;;;5.11;67.81;98034.53;4949789;28;20043;-64
2023/12/31 08:34:02;;;;;;;1.92;1.23;;;;;;;5.09;67.37;98025.97;4938453;29;20044;-63
2023/12/31 08:36:40;;;;;;;1.40;1.20;;;;;;;4.96;67.32;98009.88;4901381;29;20040;-64
2023/12/31 08:39:12;;;;;;;2.05;1.00;;;;;;;5.13;67.83;98028.50;4935211;29;20111;-64
2023/12/31 08:41:40;;;;;;;2.22;0.98;;;;;;;4.98;67.92;98008.09;4950669;28;20046;-65
2023/12/31 08:44:09;;;;;;;3.25;1.08;;;;;;;5.28;67.54;98042.91;4903161;29;20541;-64
2023/12/31 08:46:36;;;;;;;2.17;1.23;;;;;;;5.25;67.37;98035.22;4951285;28;20515;-66
2023/12/31 08:49:03;;;;;;;2.50;1.35;;;;;;;5.21;67.06;98041.28;4950725;28;20054;-63
2023/12/31 08:51:30;;;;;;;3.10;1.30;;;;;;;5.05;67.12;98020.03;4935515;29;20051;-64
2023/12/31 08:54:03;;;;;;;1.77;1.15;;;;;;;5.10;67.14;98027.69;4932567;29;20047;-64
2023/12/31 08:56:35;;;;;;;1.17;0.93;;;;;;;5.46;67.34;98071.00;4915977;29;20048;-63
2023/12/31 08:59:06;;;;;;;2.50;1.20;;;;;;;5.08;66.80;98040.59;4898926;29;20046;-64
2023/12/31 09:01:38;;;;;;;4.28;1.95;;;;;;;4.89;67.22;98014.22;4915524;29;20041;-68
2023/12/31 09:04:10;;;;;;;5.22;2.08;;;;;;;5.26;66.82;98079.88;4917134;29;20094;-64
2023/12/31 09:06:38;;;;;;;4.65;2.35;;;;;;;5.19;67.08;98065.38;4913822;29;20044;-64
2023/12/31 09:09:07;;;;;;;3.90;1.70;;;;;;;5.34;66.75;98087.50;4907040;29;20426;-66
2023/12/31 09:11:33;;;;;;;2.03;0.95;;;;;;;5.03;66.48;98036.41;4907619;29;20070;-65
2023/12/31 09:13:59;;;;;;;1.20;0.80;;;;;;;4.86;66.27;98018.59;4907077;29;20372;-64
2023/12/31 09:16:25;;;;;;;1.95;1.13;;;;;;;5.36;66.25;98094.38;4907635;29;21734;-65
2023/12/31 09:18:52;;;;;;;2.17;1.08;;;;;;;5.45;66.05;98095.09;4888724;29;20170;-64
2023/12/31 09:21:19;;;;;;;3.08;1.23;;;;;;;5.36;65.90;98075.44;4922435;29;20055;-64
2023/12/31 09:23:45;;;;;;;2.40;1.30;;;;;;;5.30;66.41;98040.28;4905631;29;20044;-65
2023/12/31 09:26:12;;;;;;;2.67;1.30;;;;;;;5.71;65.74;98092.94;4906339;29;20095;-64
2023/12/31 09:28:42;;;;;;;3.90;1.70;;;;;;;5.63;65.74;98076.72;4922281;29;20040;-65
2023/12/31 09:31:08;;;;;;;3.92;1.58;;;;;;;5.71;65.75;98097.28;4907112;29;20068;-65
2023/12/31 09:33:35;;;;;;;2.75;1.50;;;;;;;5.80;65.58;98089.34;4904875;29;20131;-67
2023/12/31 09:36:05;;;;;;;1.90;1.10;;;;;;;5.33;65.45;98042.81;4908569;29;20148;-64
2023/12/31 09:38:31;;;;;;;1.17;0.80;;;;;;;5.61;64.97;98085.38;4904467;29;20134;-65
2023/12/31 09:40:57;;;;;;;1.10;1.00;;;;;;;5.53;64.87;98085.50;4891124;29;20048;-65
2023/12/31 09:43:25;;;;;;;0.98;0.85;;;;;;;5.67;64.61;98105.94;4904804;29;20579;-64
2023/12/31 09:45:52;;;;;;;2.35;0.80;;;;;;;5.47;65.08;98083.88;4891613;29;20559;-65
2023/12/31 09:48:19;;;;;;;2.47;1.10;;;;;;;5.21;65.14;98061.03;4889079;29;20044;-65
2023/12/31 09:50:46;;;;;;;1.92;1.33;;;;;;;5.37;65.07;98095.19;4904187;29;20056;-66
2023/12/31 09:53:16;;;;;;;3.47;1.40;;;;;;;5.12;65.46;98067.19;4921859;29;20040;-65
2023/12/31 09:55:45;;;;;;;2.22;1.40;;;;;;;5.52;65.07;98109.59;4917354;29;20051;-64
2023/12/31 09:58:13;;;;;;;1.90;1.10;;;;;;;5.68;64.78;98118.81;4938072;28;20059;-64
2023/12/31 10:00:39;;;;;;;1.50;0.90;;;;;;;5.72;64.67;98119.63;4908198;29;20130;-65
2023/12/31 10:03:08;;;;;;;1.00;0.70;;;;;;;5.22;64.59;98048.16;4939754;28;20048;-66
2023/12/31 10:05:38;;;;;;;0.75;0.75;;;;;;;5.27;64.61;98066.13;4911151;29;20448;-65
2023/12/31 10:08:05;;;;;;;1.52;0.90;;;;;;;5.50;64.21;98119.97;4923428;29;20201;-65
2023/12/31 10:10:34;;;;;;;0.68;0.68;;;;;;;5.53;64.44;98129.38;4925224;29;20398;-65
2023/12/31 10:13:00;;;;;;;0.90;0.70;;;;;;;5.31;64.67;98093.56;4923326;29;20454;-66
2023/12/31 10:15:26;;;;;;;1.70;1.00;;;;;;;5.40;64.53;98108.06;4924153;29;21105;-65
2023/12/31 10:17:54;;;;;;;1.65;0.93;;;;;;;5.52;64.62;98127.66;4924418;29;20108;-64
2023/12/31 10:20:21;;;;;;;1.35;1.00;;;;;;;5.38;63.91;98121.00;4924403;29;20083;-64
2023/12/31 10:22:48;;;;;;;1.63;1.13;;;;;;;5.40;64.30;98108.06;4940080;28;20039;-66
2023/12/31 10:25:15;;;;;;;4.45;1.20;;;;;;;5.55;63.91;98135.38;4924580;29;20538;-64
2023/12/31 10:27:47;;;;;;;1.80;1.20;;;;;;;5.61;64.29;98137.00;4923674;29;20062;-65
2023/12/31 10:30:15;;;;;;;1.85;0.90;;;;;;;5.54;64.04;98118.16;4924804;29;20055;-63
2023/12/31 10:32:44;;;;;;;2.47;1.30;;;;;;;5.66;63.89;98124.88;4939232;28;20078;-64
2023/12/31 10:35:10;;;;;;;1.90;1.20;;;;;;;5.73;64.07;98139.41;4923123;29;20035;-64
2023/12/31 10:37:36;;;;;;;3.05;1.35;;;;;;;5.72;63.48;98138.53;4922890;29;20487;-64
2023/12/31 10:40:19;;;;;;;3.38;1.05;;;;;;;5.71;63.54;98133.41;4908574;29;20039;-65
2023/12/31 10:42:48;;;;;;;1.75;0.80;;;;;;;5.64;63.23;98142.09;4922769;29;20135;-65
2023/12/31 10:45:20;;;;;;;1.52;1.05;;;;;;;5.61;63.17;98148.19;4923372;29;20039;-64
2023/12/31 10:47:51;;;;;;;1.03;0.87;;;;;;;5.45;63.75;98123.47;4923258;29;20043;-65
2023/12/31 10:50:22;;;;;;;1.40;1.00;;;;;;;5.62;63.47;98149.88;4906005;29;20287;-65
2023/12/31 10:52:51;;;;;;;1.42;1.08;;;;;;;5.24;62.96;98102.25;4938105;29;20047;-65
2023/12/31 10:55:17;;;;;;;0.90;0.85;;;;;;;5.09;62.65;98090.44;4938214;28;20043;-67
2023/12/31 10:57:44;;;;;;;2.05;1.05;;;;;;;5.41;63.33;98146.72;4922217;29;20043;-64
2023/12/31 11:00:11;;;;;;;1.95;1.10;;;;;;;5.26;63.17;98134.06;4923457;29;20126;-64
2023/12/31 11:02:37;;;;;;;1.30;0.82;;;;;;;5.23;63.53;98137.53;4924094;29;20040;-65
2023/12/31 11:05:05;;;;;;;1.90;1.10;;;;;;;5.27;63.20;98148.66;4938407;28;20472;-64
2023/12/31 11:07:36;;;;;;;2.10;1.63;;;;;;;5.28;63.39;98151.22;4937840;28;20046;-65
2023/12/31 11:10:03;;;;;;;1.37;1.00;;;;;;;5.33;64.17;98153.72;4923210;29;20059;-64
2023/12/31 11:12:32;;;;;;;8.18;4.00;;;;;;;5.15;63.49;98130.78;4922038;29;20294;-64
2023/12/31 11:15:13;;;;;;;1.10;1.00;;;;;;;5.06;63.74;98119.72;4922133;29;20043;-64
2023/12/31 11:17:57;;;;;;;1.23;1.00;;;;;;;5.14;63.43;98129.91;4907368;29;20111;-64
2023/12/31 11:20:45;;;;;;;1.85;1.10;;;;;;;5.33;64.19;98153.72;4924356;29;20417;-64
2023/12/31 11:23:30;;;;;;;2.00;1.00;;;;;;;5.26;64.34;98126.31;4940095;28;20043;-64
2023/12/31 11:25:57;;;;;;;1.60;1.20;;;;;;;5.51;64.44;98146.59;4907619;29;20048;-65
2023/12/31 11:28:27;;;;;;;2.28;1.00;;;;;;;5.54;64.26;98152.56;4925527;29;20126;-66
2023/12/31 11:30:57;;;;;;;1.48;1.00;;;;;;;5.55;64.66;98151.69;4923652;29;20107;-64
2023/12/31 11:33:27;;;;;;;3.17;1.20;;;;;;;5.45;64.07;98131.19;4939627;28;21172;-64
2023/12/31 11:36:01;;;;;;;1.08;0.90;;;;;;;5.47;64.01;98138.06;4907760;29;20054;-65
2023/12/31 11:38:47;;;;;;;1.58;0.80;;;;;;;5.35;63.87;98126.19;4938620;28;20075;-66
2023/12/31 11:41:13;;;;;;;1.50;0.90;;;;;;;5.41;63.89;98131.25;4906925;29;20095;-64
2023/12/31 11:43:39;;;;;;;1.77;0.95;;;;;;;5.46;63.54;98149.25;4894612;29;20067;-65
2023/12/31 11:46:06;;;;;;;2.47;1.20;;;;;;;5.48;64.01;98162.13;4921948;29;20062;-66
2023/12/31 11:48:32;;;;;;;2.95;1.10;;;;;;;5.10;64.14;98098.16;4939358;28;20070;-65